This is the latest recevied weather packets stored in our database for station/object K7MT-WX. If no packets are shown the sender has not sent any weather packets the latest 10 day(s).
| Time | Temp. | Humidity | Pressure | Rain* | Wind** | Luminosity | Snow |
|---|---|---|---|---|---|---|---|
| 1788252575 | 9.44° C | 73% | 1013.7 hPa | 0 mm | - | - | - |
| 1788251675 | 9.44° C | 73% | 1014 hPa | 0 mm | - | - | - |
| 1788250795 | 10° C | 71% | 1013.8 hPa | 0 mm | - | - | - |
| 1788249875 | 10° C | 70% | 1013.9 hPa | 0 mm | - | - | - |
| 1788248975 | 11.11° C | 66% | 1014.2 hPa | 0 mm | - | - | - |
| 1788248075 | 11.67° C | 62% | 1014 hPa | 0 mm | - | - | - |
| 1788247175 | 11.67° C | 62% | 1014 hPa | 0 mm | - | - | - |
| 1788246275 | 12.22° C | 60% | 1013.9 hPa | 0 mm | - | - | - |
| 1788245375 | 12.22° C | 61% | 1013.9 hPa | 0 mm | - | - | - |
| 1788244475 | 12.78° C | 59% | 1013.7 hPa | 0 mm | - | - | - |
| 1788243575 | 12.78° C | 59% | 1013.7 hPa | 0 mm | - | - | - |
| 1788242675 | 12.78° C | 59% | 1013.9 hPa | 0 mm | - | - | - |
| 1788241775 | 13.33° C | 58% | 1013.8 hPa | 0 mm | - | - | - |
| 1788240875 | 13.89° C | 54% | 1013.8 hPa | 0 mm | - | - | - |
| 1788239975 | 13.33° C | 57% | 1014 hPa | 0 mm | - | - | - |
| 1788239075 | 13.89° C | 57% | 1013.9 hPa | 0 mm | - | - | - |
| 1788238175 | 14.44° C | 54% | 1013.9 hPa | 0 mm | - | - | - |
| 1788237275 | 14.44° C | 57% | 1014 hPa | 0 mm | - | - | - |
| 1788236375 | 15° C | 55% | 1014 hPa | 0 mm | - | - | - |
| 1788235475 | 15° C | 54% | 1014.1 hPa | 0 mm | - | - | - |
| 1788234575 | 16.11° C | 54% | 1014 hPa | 0 mm | - | - | - |
| 1788233675 | 16.67° C | 51% | 1013.8 hPa | 0 mm | - | - | - |
| 1788232775 | 16.67° C | 50% | 1013.7 hPa | 0 mm | - | - | - |
| 1788231875 | 17.22° C | 47% | 1013.6 hPa | 0 mm | - | - | - |
| 1788230975 | 18.33° C | 47% | 1013.3 hPa | 0 mm | - | - | - |
* Rain latest hour (hover to see other rain measurements)
** Current wind speed in m/s (hover to see current wind gust speed)